createdAt,value
2023-02-27T00:00:21.223Z,85.10
2023-02-27T00:02:49.348Z,84.60
2023-02-27T00:05:16.761Z,85.40
2023-02-27T00:07:43.924Z,84.90
2023-02-27T00:10:11.656Z,85.00
2023-02-27T00:12:39.072Z,84.80
2023-02-27T00:15:07.473Z,85.40
2023-02-27T00:17:35.052Z,84.90
2023-02-27T00:20:02.673Z,85.00
2023-02-27T00:22:29.913Z,85.40
2023-02-27T00:24:57.090Z,85.90
2023-02-27T00:27:24.338Z,85.90
2023-02-27T00:29:51.536Z,86.30
2023-02-27T00:32:19.441Z,89.90
2023-02-27T00:34:47.737Z,90.40
2023-02-27T00:37:14.922Z,91.00
2023-02-27T00:39:42.252Z,91.50
2023-02-27T00:42:09.484Z,91.60
2023-02-27T00:44:36.699Z,91.70
2023-02-27T00:47:03.944Z,91.80
2023-02-27T00:49:32.858Z,92.10
2023-02-27T00:52:00.056Z,92.30
2023-02-27T00:54:27.877Z,92.30
2023-02-27T00:56:55.036Z,92.40
2023-02-27T00:59:22.202Z,92.30
2023-02-27T01:01:49.411Z,92.40
2023-02-27T01:04:16.600Z,92.40
2023-02-27T01:06:43.848Z,92.40
2023-02-27T01:09:11.135Z,92.30
2023-02-27T01:11:38.662Z,92.40
2023-02-27T01:14:05.969Z,92.40
2023-02-27T01:16:33.244Z,92.50
2023-02-27T01:19:00.582Z,92.40
2023-02-27T01:21:28.016Z,92.50
2023-02-27T01:23:55.419Z,92.70
2023-02-27T01:26:22.632Z,92.90
2023-02-27T01:28:49.825Z,93.00
2023-02-27T01:31:17.098Z,93.10
2023-02-27T01:33:44.330Z,92.80
2023-02-27T01:36:11.526Z,92.90
2023-02-27T01:38:38.750Z,93.40
2023-02-27T01:41:07.361Z,93.10
2023-02-27T01:43:34.922Z,93.50
2023-02-27T01:46:02.218Z,94.10
2023-02-27T01:48:34.405Z,93.40
2023-02-27T01:51:03.661Z,93.30
2023-02-27T01:53:33.857Z,93.50
2023-02-27T01:56:05.119Z,93.40
2023-02-27T01:58:32.420Z,93.60
2023-02-27T02:01:00.102Z,94.70
2023-02-27T02:03:33.862Z,94.00
2023-02-27T02:06:02.698Z,92.40
2023-02-27T02:08:32.014Z,92.80
2023-02-27T02:10:59.867Z,92.80
2023-02-27T02:13:27.340Z,92.50
2023-02-27T02:16:14.857Z,93.00
2023-02-27T02:19:01.042Z,92.90
2023-02-27T02:21:48.376Z,92.60
2023-02-27T02:24:15.545Z,92.20
2023-02-27T02:26:58.083Z,91.90
2023-02-27T02:29:28.060Z,92.30
2023-02-27T02:32:13.828Z,91.70
2023-02-27T02:34:59.786Z,91.80
2023-02-27T02:37:44.511Z,91.60
2023-02-27T02:40:17.645Z,91.70
2023-02-27T02:42:53.373Z,91.60
2023-02-27T02:45:21.915Z,91.80
2023-02-27T02:48:07.659Z,91.80
2023-02-27T02:50:39.513Z,92.50
2023-02-27T02:53:26.727Z,91.80
2023-02-27T02:56:20.784Z,92.10
2023-02-27T02:59:17.493Z,91.90
2023-02-27T03:01:49.129Z,91.90
2023-02-27T03:04:23.198Z,91.90
2023-02-27T03:06:54.752Z,91.90
2023-02-27T03:09:45.261Z,91.90
2023-02-27T03:12:14.209Z,92.70
2023-02-27T03:14:44.784Z,92.10
2023-02-27T03:17:15.460Z,92.20
2023-02-27T03:19:46.081Z,92.40
2023-02-27T03:22:18.635Z,92.10
2023-02-27T03:24:48.293Z,91.90
2023-02-27T03:27:16.886Z,92.20
2023-02-27T03:29:44.163Z,91.90
2023-02-27T03:32:16.100Z,91.90
2023-02-27T03:34:43.853Z,91.80
2023-02-27T03:37:30.559Z,91.40
2023-02-27T03:40:06.566Z,91.40
2023-02-27T03:42:37.703Z,91.50
2023-02-27T03:45:13.478Z,91.50
2023-02-27T03:47:40.889Z,91.80
2023-02-27T03:50:09.091Z,91.70
2023-02-27T03:52:36.547Z,91.50
2023-02-27T03:55:12.859Z,91.40
2023-02-27T03:57:41.072Z,91.30
2023-02-27T04:00:11.770Z,91.40
2023-02-27T04:02:43.709Z,91.30
2023-02-27T04:05:12.312Z,91.20
2023-02-27T04:07:55.134Z,91.30
2023-02-27T04:10:40.877Z,91.40
2023-02-27T04:13:14.602Z,91.20
2023-02-27T04:15:47.940Z,91.10
2023-02-27T04:18:38.379Z,91.60
2023-02-27T04:21:18.472Z,91.20
2023-02-27T04:23:51.506Z,90.90
2023-02-27T04:26:28.849Z,91.00
2023-02-27T04:29:04.950Z,90.90
2023-02-27T04:31:44.642Z,91.30
2023-02-27T04:34:18.055Z,90.70
2023-02-27T04:36:48.262Z,90.60
2023-02-27T04:39:27.266Z,90.70
2023-02-27T04:42:02.229Z,90.70
2023-02-27T04:44:30.972Z,90.00
2023-02-27T04:46:59.677Z,89.70
2023-02-27T04:49:33.053Z,88.20
2023-02-27T04:52:00.262Z,88.30
2023-02-27T04:54:40.772Z,87.20
2023-02-27T04:57:10.540Z,86.90
2023-02-27T04:59:39.944Z,87.10
2023-02-27T05:02:16.175Z,87.20
2023-02-27T05:04:44.903Z,87.30
2023-02-27T05:07:15.720Z,87.60
2023-02-27T05:09:42.855Z,86.50
2023-02-27T05:12:21.895Z,86.70
2023-02-27T05:14:49.081Z,86.40
2023-02-27T05:17:22.415Z,85.60
2023-02-27T05:19:49.753Z,85.80
2023-02-27T05:22:19.706Z,86.00
2023-02-27T05:24:49.637Z,85.90
2023-02-27T05:27:20.352Z,86.10
2023-02-27T05:29:51.866Z,85.70
2023-02-27T05:32:19.798Z,85.60
2023-02-27T05:34:51.979Z,85.30
2023-02-27T05:37:25.420Z,86.00
2023-02-27T05:39:53.290Z,85.60
2023-02-27T05:42:27.036Z,86.10
2023-02-27T05:44:57.006Z,86.20
2023-02-27T05:47:26.562Z,86.30
2023-02-27T05:50:02.511Z,85.50
2023-02-27T05:52:30.821Z,87.10
2023-02-27T05:55:03.825Z,85.90
2023-02-27T05:57:35.594Z,86.00
2023-02-27T06:00:05.907Z,85.80
2023-02-27T06:02:39.315Z,85.10
2023-02-27T06:05:08.774Z,85.10
2023-02-27T06:07:36.027Z,85.70
2023-02-27T06:10:04.633Z,85.30
2023-02-27T06:12:31.870Z,85.30
2023-02-27T06:14:59.142Z,86.00
2023-02-27T06:17:26.499Z,85.40
2023-02-27T06:19:53.702Z,86.70
2023-02-27T06:22:20.867Z,85.90
2023-02-27T06:24:48.088Z,86.80
2023-02-27T06:27:15.360Z,86.40
2023-02-27T06:29:42.573Z,86.60
2023-02-27T06:32:09.825Z,87.20
2023-02-27T06:34:37.044Z,86.60
2023-02-27T06:37:04.467Z,86.10
2023-02-27T06:39:32.750Z,86.00
2023-02-27T06:41:59.964Z,86.40
2023-02-27T06:44:27.170Z,86.20
2023-02-27T06:46:54.315Z,85.40
2023-02-27T06:49:21.560Z,85.50
2023-02-27T06:51:48.865Z,87.00
2023-02-27T06:54:16.041Z,87.40
2023-02-27T06:56:43.453Z,86.50
2023-02-27T06:59:11.205Z,87.40
2023-02-27T07:01:38.864Z,87.80
2023-02-27T07:04:06.110Z,88.50
2023-02-27T07:07:34.214Z,88.90
2023-02-27T07:09:20.532Z,89.50
2023-02-27T07:11:47.778Z,89.10
2023-02-27T07:14:16.681Z,89.30
2023-02-27T07:16:43.869Z,88.90
2023-02-27T07:19:11.329Z,88.70
2023-02-27T07:21:38.567Z,88.80
2023-02-27T07:24:05.870Z,89.60
2023-02-27T07:26:33.062Z,89.80
2023-02-27T07:29:00.402Z,89.10
2023-02-27T07:31:29.034Z,88.70
2023-02-27T07:33:56.406Z,88.20
2023-02-27T07:36:23.646Z,88.70
2023-02-27T07:38:50.835Z,88.60
2023-02-27T07:41:30.019Z,88.20
2023-02-27T07:44:00.386Z,88.50
2023-02-27T07:46:28.269Z,88.40
2023-02-27T07:48:55.700Z,87.50
2023-02-27T07:51:23.031Z,87.40
2023-02-27T07:53:50.239Z,87.20
2023-02-27T07:56:17.455Z,88.00
2023-02-27T07:58:44.697Z,86.70
2023-02-27T08:01:11.889Z,87.20
2023-02-27T08:03:39.098Z,87.80
2023-02-27T08:06:06.444Z,86.80
2023-02-27T08:08:33.655Z,86.50
2023-02-27T08:11:00.917Z,86.80
2023-02-27T08:13:55.742Z,86.40
2023-02-27T08:16:15.435Z,86.70
2023-02-27T08:18:42.668Z,85.80
2023-02-27T08:21:09.885Z,86.60
2023-02-27T08:23:37.144Z,85.30
2023-02-27T08:26:04.566Z,85.40
2023-02-27T08:28:31.800Z,85.40
2023-02-27T08:30:59.047Z,85.60
2023-02-27T08:33:26.693Z,85.50
2023-02-27T08:35:55.676Z,85.10
2023-02-27T08:38:24.880Z,84.70
2023-02-27T08:40:53.497Z,83.20
2023-02-27T08:43:21.635Z,83.30
2023-02-27T08:45:49.259Z,83.20
2023-02-27T08:48:17.786Z,82.70
2023-02-27T08:50:45.591Z,83.70
2023-02-27T08:53:12.847Z,82.30
2023-02-27T08:55:40.038Z,82.10
2023-02-27T08:58:07.214Z,83.00
2023-02-27T09:00:34.574Z,80.90
2023-02-27T09:03:01.863Z,81.20
2023-02-27T09:05:29.443Z,81.40
2023-02-27T09:07:56.681Z,81.40
2023-02-27T09:10:23.962Z,80.90
2023-02-27T09:12:51.264Z,81.30
2023-02-27T09:15:18.566Z,80.50
2023-02-27T09:17:45.761Z,79.40
2023-02-27T09:20:13.001Z,80.80
2023-02-27T09:22:40.215Z,80.30
2023-02-27T09:25:07.708Z,80.10
2023-02-27T09:27:35.236Z,78.40
2023-02-27T09:30:02.570Z,78.50
2023-02-27T09:32:29.870Z,80.20
2023-02-27T09:34:58.298Z,78.80
2023-02-27T09:37:25.583Z,79.30
2023-02-27T09:39:52.761Z,78.10
2023-02-27T09:42:24.589Z,78.10
2023-02-27T09:45:01.938Z,79.60
2023-02-27T09:47:36.887Z,77.90
2023-02-27T09:50:07.322Z,78.90
2023-02-27T09:52:36.382Z,77.20
2023-02-27T09:55:11.959Z,76.20
2023-02-27T09:57:39.137Z,76.60
2023-02-27T10:00:27.049Z,77.20
2023-02-27T10:03:14.535Z,78.90
2023-02-27T10:05:47.352Z,77.90
2023-02-27T10:08:17.570Z,76.80
2023-02-27T10:10:55.103Z,77.40
2023-02-27T10:13:40.988Z,78.60
2023-02-27T10:16:10.802Z,77.20
2023-02-27T10:18:46.759Z,78.30
2023-02-27T10:21:17.077Z,78.50
2023-02-27T10:23:49.494Z,79.10
2023-02-27T10:26:19.683Z,76.50
2023-02-27T10:28:46.919Z,76.90
2023-02-27T10:31:21.125Z,78.30
2023-02-27T10:33:48.825Z,79.30
2023-02-27T10:36:32.175Z,76.80
2023-02-27T10:39:03.587Z,77.50
2023-02-27T10:41:30.831Z,77.60
2023-02-27T10:43:59.514Z,77.80
2023-02-27T10:46:31.719Z,74.30
2023-02-27T10:49:00.377Z,74.50
2023-02-27T10:51:31.726Z,75.30
2023-02-27T10:54:17.810Z,73.40
2023-02-27T10:56:47.507Z,71.30
2023-02-27T10:59:40.804Z,71.60
2023-02-27T11:02:17.203Z,71.10
2023-02-27T11:04:49.842Z,73.10
2023-02-27T11:07:25.892Z,73.90
2023-02-27T11:10:04.437Z,73.20
2023-02-27T11:12:33.147Z,73.60
2023-02-27T11:15:02.531Z,73.50
2023-02-27T11:17:32.387Z,73.10
2023-02-27T11:20:00.615Z,73.10
2023-02-27T11:22:31.534Z,73.00
2023-02-27T11:25:18.308Z,73.60
2023-02-27T11:27:46.604Z,72.90
2023-02-27T11:30:25.934Z,71.40
2023-02-27T11:32:53.800Z,71.70
2023-02-27T11:35:29.840Z,73.80
2023-02-27T11:37:59.021Z,72.10
2023-02-27T11:40:30.019Z,73.20
2023-02-27T11:43:01.845Z,73.60
2023-02-27T11:46:05.197Z,73.70
2023-02-27T11:48:23.590Z,72.20
2023-02-27T11:50:53.871Z,72.40
2023-02-27T11:53:34.414Z,71.90
2023-02-27T11:56:03.563Z,71.70
2023-02-27T11:58:35.188Z,72.60
2023-02-27T12:01:07.796Z,71.80
2023-02-27T12:03:40.830Z,71.80
2023-02-27T12:06:15.342Z,72.60
2023-02-27T12:08:49.332Z,71.80
2023-02-27T12:11:22.119Z,71.80
2023-02-27T12:13:55.638Z,71.50
2023-02-27T12:16:31.664Z,71.40
2023-02-27T12:19:12.965Z,72.20
2023-02-27T12:21:42.291Z,72.40
2023-02-27T12:24:16.067Z,71.30
2023-02-27T12:26:45.263Z,70.40
2023-02-27T12:29:15.210Z,70.20
2023-02-27T12:31:45.387Z,71.00
2023-02-27T12:34:16.841Z,70.70
2023-02-27T12:36:44.649Z,69.60
2023-02-27T12:39:38.278Z,72.00
2023-02-27T12:42:24.990Z,69.60
2023-02-27T12:45:10.568Z,68.80
2023-02-27T12:47:46.738Z,68.80
2023-02-27T12:50:18.890Z,69.10
2023-02-27T12:52:50.863Z,69.20
2023-02-27T12:55:23.981Z,67.80
2023-02-27T12:58:09.801Z,69.30
2023-02-27T13:00:46.329Z,69.40
2023-02-27T13:03:13.620Z,69.60
2023-02-27T13:05:45.329Z,69.50
2023-02-27T13:08:18.442Z,70.30
2023-02-27T13:10:49.152Z,69.40
2023-02-27T13:13:20.721Z,70.00
2023-02-27T13:16:00.697Z,69.20
2023-02-27T13:18:30.745Z,69.90
2023-02-27T13:21:11.216Z,69.50
2023-02-27T13:23:44.510Z,69.20
2023-02-27T13:26:17.112Z,68.60
2023-02-27T13:28:44.643Z,69.10
2023-02-27T13:31:29.905Z,70.00
2023-02-27T13:34:16.770Z,69.20
2023-02-27T13:36:46.605Z,69.40
2023-02-27T13:39:32.443Z,70.20
2023-02-27T13:41:59.905Z,69.90
2023-02-27T13:44:28.896Z,69.50
2023-02-27T13:47:16.101Z,69.20
2023-02-27T13:49:43.756Z,69.00
2023-02-27T13:52:10.991Z,69.80
2023-02-27T13:54:41.771Z,67.20
2023-02-27T13:57:14.739Z,68.90
2023-02-27T13:59:44.363Z,71.10
2023-02-27T14:02:11.675Z,70.90
2023-02-27T14:04:47.015Z,69.90
2023-02-27T14:07:18.609Z,70.90
2023-02-27T14:09:47.094Z,69.80
2023-02-27T14:12:44.030Z,70.60
2023-02-27T14:15:18.595Z,71.20
2023-02-27T14:17:46.693Z,71.00
2023-02-27T14:20:34.141Z,71.60
2023-02-27T14:23:20.598Z,71.30
2023-02-27T14:25:57.989Z,72.70
2023-02-27T14:28:31.019Z,73.50
2023-02-27T14:31:06.048Z,72.20
2023-02-27T14:33:45.622Z,73.60
2023-02-27T14:36:19.049Z,72.00
2023-02-27T14:38:46.493Z,72.50
2023-02-27T14:41:32.077Z,71.40
2023-02-27T14:43:59.426Z,72.40
2023-02-27T14:46:30.956Z,72.20
2023-02-27T14:49:00.115Z,73.30
2023-02-27T14:51:30.447Z,72.10
2023-02-27T14:54:05.556Z,71.60
2023-02-27T14:56:33.232Z,71.80
2023-02-27T14:59:04.931Z,73.70
2023-02-27T15:01:36.473Z,73.20
2023-02-27T15:04:04.662Z,74.00
2023-02-27T15:06:43.771Z,74.20
2023-02-27T15:09:34.234Z,73.70
2023-02-27T15:12:04.283Z,74.10
2023-02-27T15:14:34.572Z,74.40
2023-02-27T15:17:01.925Z,74.20
2023-02-27T15:19:30.210Z,74.30
2023-02-27T15:22:04.113Z,74.80
2023-02-27T15:24:47.883Z,75.00
2023-02-27T15:27:27.081Z,75.10
2023-02-27T15:29:55.536Z,75.60
2023-02-27T15:32:31.431Z,74.40
2023-02-27T15:35:01.039Z,73.70
2023-02-27T15:37:32.322Z,74.90
2023-02-27T15:40:00.180Z,74.60
2023-02-27T15:42:34.956Z,74.40
2023-02-27T15:45:02.933Z,74.30
2023-02-27T15:47:33.736Z,73.70
2023-02-27T15:50:11.932Z,74.00
2023-02-27T15:52:43.384Z,74.30
2023-02-27T15:55:15.383Z,74.40
2023-02-27T15:57:56.599Z,75.50
2023-02-27T16:00:30.721Z,75.30
2023-02-27T16:02:58.684Z,75.50
2023-02-27T16:05:40.612Z,75.00
2023-02-27T16:08:08.194Z,74.90
2023-02-27T16:10:41.721Z,75.80
2023-02-27T16:13:27.710Z,76.60
2023-02-27T16:16:00.232Z,76.70
2023-02-27T16:18:35.435Z,76.50
2023-02-27T16:21:11.294Z,76.80
2023-02-27T16:23:39.033Z,76.70
2023-02-27T16:26:06.309Z,78.00
2023-02-27T16:28:35.424Z,78.40
2023-02-27T16:31:02.772Z,78.70
2023-02-27T16:33:32.451Z,78.90
2023-02-27T16:36:13.255Z,79.30
2023-02-27T16:38:40.441Z,80.10
2023-02-27T16:41:09.430Z,81.00
2023-02-27T16:43:36.761Z,80.20
2023-02-27T16:46:04.101Z,80.20
2023-02-27T16:48:31.325Z,79.50
2023-02-27T16:50:58.545Z,80.00
2023-02-27T16:53:25.812Z,79.30
2023-02-27T16:55:55.107Z,79.20
2023-02-27T16:58:22.294Z,79.50
2023-02-27T17:00:49.545Z,79.20
2023-02-27T17:03:16.882Z,78.60
2023-02-27T17:05:44.086Z,79.00
2023-02-27T17:08:11.350Z,78.90
2023-02-27T17:10:38.572Z,79.30
2023-02-27T17:13:06.193Z,79.50
2023-02-27T17:15:33.455Z,80.30
2023-02-27T17:18:00.771Z,81.30
2023-02-27T17:20:30.132Z,81.30
2023-02-27T17:22:57.786Z,81.60
2023-02-27T17:25:26.315Z,81.70
2023-02-27T17:27:53.905Z,82.50
2023-02-27T17:30:21.186Z,83.00
2023-02-27T17:32:48.400Z,83.70
2023-02-27T17:35:15.655Z,83.80
2023-02-27T17:37:42.832Z,83.70
2023-02-27T17:40:12.176Z,84.10
2023-02-27T17:42:39.507Z,83.70
2023-02-27T17:45:07.651Z,83.40
2023-02-27T17:47:34.971Z,84.00
2023-02-27T17:50:02.724Z,84.10
2023-02-27T17:52:30.062Z,83.90
2023-02-27T17:54:57.275Z,83.70
2023-02-27T17:57:24.508Z,83.70
2023-02-27T17:59:51.698Z,84.10
2023-02-27T18:02:19.330Z,84.60
2023-02-27T18:04:47.322Z,84.50
2023-02-27T18:07:14.643Z,84.10
2023-02-27T18:09:41.934Z,84.40
2023-02-27T18:12:09.143Z,84.20
2023-02-27T18:14:36.452Z,84.70
2023-02-27T18:17:03.767Z,84.50
2023-02-27T18:19:32.576Z,85.50
2023-02-27T18:21:59.863Z,84.20
2023-02-27T18:24:27.106Z,84.80
2023-02-27T18:26:54.555Z,85.40
2023-02-27T18:29:21.877Z,85.50
2023-02-27T18:31:53.970Z,85.30
2023-02-27T18:34:21.858Z,85.90
2023-02-27T18:36:49.087Z,86.20
2023-02-27T18:39:16.372Z,86.90
2023-02-27T18:41:43.556Z,87.10
2023-02-27T18:44:10.747Z,88.00
2023-02-27T18:46:38.429Z,86.60
2023-02-27T18:49:06.030Z,87.40
2023-02-27T18:51:33.439Z,87.30
2023-02-27T18:54:00.858Z,87.20
2023-02-27T18:56:30.491Z,87.10
2023-02-27T18:59:01.950Z,88.20
2023-02-27T19:01:31.187Z,87.60
2023-02-27T19:04:03.568Z,87.30
2023-02-27T19:06:35.088Z,87.80
2023-02-27T19:09:04.418Z,88.60
2023-02-27T19:11:34.655Z,88.00
2023-02-27T19:14:02.735Z,87.40
2023-02-27T19:16:30.398Z,87.40
2023-02-27T19:18:58.569Z,87.30
2023-02-27T19:21:26.253Z,87.40
2023-02-27T19:23:53.431Z,87.60
2023-02-27T19:26:21.307Z,87.50
2023-02-27T19:28:53.559Z,87.60
2023-02-27T19:31:21.785Z,87.10
2023-02-27T19:33:49.510Z,87.20
2023-02-27T19:36:18.434Z,87.60
2023-02-27T19:38:45.998Z,87.20
2023-02-27T19:41:14.820Z,87.80
2023-02-27T19:43:42.465Z,88.40
2023-02-27T19:46:11.849Z,89.20
2023-02-27T19:48:39.162Z,89.50
2023-02-27T19:51:07.553Z,89.60
2023-02-27T19:53:35.880Z,89.90
2023-02-27T19:56:05.129Z,90.00
2023-02-27T19:58:33.986Z,89.80
2023-02-27T20:01:01.490Z,89.70
2023-02-27T20:03:29.337Z,89.50
2023-02-27T20:05:56.789Z,89.90
2023-02-27T20:08:24.099Z,89.60
2023-02-27T20:10:58.402Z,89.90
2023-02-27T20:13:26.035Z,90.10
2023-02-27T20:15:56.444Z,89.80
2023-02-27T20:18:24.305Z,89.90
2023-02-27T20:21:03.748Z,89.80
2023-02-27T20:23:31.499Z,89.40
2023-02-27T20:25:59.230Z,89.70
2023-02-27T20:28:28.291Z,89.30
2023-02-27T20:30:55.574Z,89.20
2023-02-27T20:33:22.767Z,89.70
2023-02-27T20:35:50.010Z,89.50
2023-02-27T20:38:19.942Z,89.50
2023-02-27T20:40:47.198Z,89.60
2023-02-27T20:43:14.370Z,89.40
2023-02-27T20:45:41.727Z,89.30
2023-02-27T20:48:08.991Z,89.60
2023-02-27T20:50:36.600Z,89.20
2023-02-27T20:53:03.888Z,89.40
2023-02-27T20:55:31.098Z,89.20
2023-02-27T20:57:58.567Z,89.00
2023-02-27T21:00:26.898Z,89.90
2023-02-27T21:02:54.266Z,89.80
2023-02-27T21:05:21.503Z,89.80
2023-02-27T21:07:48.780Z,90.10
2023-02-27T21:10:15.997Z,90.10
2023-02-27T21:12:44.923Z,90.00
2023-02-27T21:15:12.250Z,90.00
2023-02-27T21:17:39.631Z,89.80
2023-02-27T21:20:07.274Z,90.10
2023-02-27T21:22:34.763Z,90.00
2023-02-27T21:25:01.920Z,90.10
2023-02-27T21:27:29.164Z,90.20
2023-02-27T21:29:56.408Z,90.50
2023-02-27T21:32:23.660Z,90.40
2023-02-27T21:34:50.944Z,90.30
2023-02-27T21:37:18.186Z,90.40
2023-02-27T21:39:50.473Z,90.40
2023-02-27T21:42:18.121Z,90.50
2023-02-27T21:44:45.301Z,90.50
2023-02-27T21:47:12.585Z,90.50
2023-02-27T21:49:39.921Z,90.40
2023-02-27T21:52:07.171Z,90.50
2023-02-27T21:54:34.453Z,90.70
2023-02-27T21:57:03.174Z,90.80
2023-02-27T21:59:30.586Z,90.60
2023-02-27T22:01:57.893Z,91.10
2023-02-27T22:04:25.349Z,90.70
2023-02-27T22:06:52.976Z,90.80
2023-02-27T22:09:21.508Z,90.80
2023-02-27T22:11:49.158Z,90.70
2023-02-27T22:14:16.435Z,90.80
2023-02-27T22:16:43.692Z,90.80
2023-02-27T22:19:13.747Z,90.90
2023-02-27T22:21:40.974Z,91.00
2023-02-27T22:24:08.306Z,90.80
2023-02-27T22:26:35.817Z,91.00
2023-02-27T22:29:03.600Z,90.90
2023-02-27T22:31:32.765Z,90.90
2023-02-27T22:34:02.480Z,91.10
2023-02-27T22:36:30.863Z,91.20
2023-02-27T22:38:58.575Z,91.30
2023-02-27T22:41:27.521Z,91.40
2023-02-27T22:43:55.312Z,91.40
2023-02-27T22:46:29.850Z,91.30
2023-02-27T22:48:57.949Z,91.40
2023-02-27T22:51:27.707Z,91.60
2023-02-27T22:53:55.993Z,91.60
2023-02-27T22:56:23.976Z,91.50
2023-02-27T22:58:51.600Z,91.60
2023-02-27T23:01:23.066Z,91.70
2023-02-27T23:03:51.166Z,91.90
2023-02-27T23:06:19.933Z,92.00
2023-02-27T23:08:47.617Z,91.90
2023-02-27T23:11:15.406Z,91.90
2023-02-27T23:13:42.733Z,91.90
2023-02-27T23:16:13.846Z,91.90
2023-02-27T23:18:42.114Z,92.10
2023-02-27T23:21:09.583Z,92.30
2023-02-27T23:23:36.853Z,92.10
2023-02-27T23:26:04.422Z,92.10
2023-02-27T23:28:32.230Z,92.60
2023-02-27T23:31:02.353Z,92.10
2023-02-27T23:33:29.892Z,91.70
2023-02-27T23:35:57.721Z,91.60
2023-02-27T23:38:25.905Z,91.60
2023-02-27T23:40:53.274Z,91.00
2023-02-27T23:43:20.689Z,90.70
2023-02-27T23:45:47.916Z,90.70
2023-02-27T23:48:15.143Z,90.10
2023-02-27T23:50:46.349Z,90.20
2023-02-27T23:53:13.851Z,90.00
2023-02-27T23:55:41.098Z,90.00
2023-02-27T23:58:09.358Z,89.80
